sensor_id;sensor_type;location;lat;lon;timestamp;temperature;humidity
32787;DHT22;19139;49.372;8.580;2022-12-29T00:01:41;17.70;90.50
32787;DHT22;19139;49.372;8.580;2022-12-29T00:04:11;17.70;90.50
32787;DHT22;19139;49.372;8.580;2022-12-29T00:06:41;17.70;90.60
32787;DHT22;19139;49.372;8.580;2022-12-29T00:09:10;17.70;90.60
32787;DHT22;19139;49.372;8.580;2022-12-29T00:11:37;17.70;90.60
32787;DHT22;19139;49.372;8.580;2022-12-29T00:14:04;17.70;90.60
32787;DHT22;19139;49.372;8.580;2022-12-29T00:16:51;17.70;90.60
32787;DHT22;19139;49.372;8.580;2022-12-29T00:19:18;17.70;90.60
32787;DHT22;19139;49.372;8.580;2022-12-29T00:22:03;17.70;90.60
32787;DHT22;19139;49.372;8.580;2022-12-29T00:24:49;17.70;90.60
32787;DHT22;19139;49.372;8.580;2022-12-29T00:27:28;17.70;90.60
32787;DHT22;19139;49.372;8.580;2022-12-29T00:30:21;17.70;90.60
32787;DHT22;19139;49.372;8.580;2022-12-29T00:38:26;17.80;90.60
32787;DHT22;19139;49.372;8.580;2022-12-29T00:41:12;17.70;90.60
32787;DHT22;19139;49.372;8.580;2022-12-29T00:43:58;17.80;90.70
32787;DHT22;19139;49.372;8.580;2022-12-29T00:46:37;17.80;90.70
32787;DHT22;19139;49.372;8.580;2022-12-29T00:49:06;17.70;90.70
32787;DHT22;19139;49.372;8.580;2022-12-29T00:51:52;17.70;90.70
32787;DHT22;19139;49.372;8.580;2022-12-29T00:54:19;17.70;90.70
32787;DHT22;19139;49.372;8.580;2022-12-29T00:56:48;17.70;90.70
32787;DHT22;19139;49.372;8.580;2022-12-29T00:59:15;17.70;90.70
32787;DHT22;19139;49.372;8.580;2022-12-29T01:01:44;17.70;90.70
32787;DHT22;19139;49.372;8.580;2022-12-29T01:04:11;17.70;90.70
32787;DHT22;19139;49.372;8.580;2022-12-29T01:06:39;17.70;90.70
32787;DHT22;19139;49.372;8.580;2022-12-29T01:09:07;17.70;90.70
32787;DHT22;19139;49.372;8.580;2022-12-29T01:11:52;17.70;90.70
32787;DHT22;19139;49.372;8.580;2022-12-29T01:14:20;17.70;90.70
32787;DHT22;19139;49.372;8.580;2022-12-29T01:16:47;17.70;90.70
32787;DHT22;19139;49.372;8.580;2022-12-29T01:19:14;17.70;90.70
32787;DHT22;19139;49.372;8.580;2022-12-29T01:21:41;17.70;90.70
32787;DHT22;19139;49.372;8.580;2022-12-29T01:24:07;17.70;90.70
32787;DHT22;19139;49.372;8.580;2022-12-29T01:26:34;17.70;90.70
32787;DHT22;19139;49.372;8.580;2022-12-29T01:29:01;17.70;90.70
32787;DHT22;19139;49.372;8.580;2022-12-29T01:31:27;17.70;90.70
32787;DHT22;19139;49.372;8.580;2022-12-29T01:33:54;17.70;90.70
32787;DHT22;19139;49.372;8.580;2022-12-29T01:36:21;17.70;90.70
32787;DHT22;19139;49.372;8.580;2022-12-29T01:38:47;17.70;90.70
32787;DHT22;19139;49.372;8.580;2022-12-29T01:41:15;17.70;90.70
32787;DHT22;19139;49.372;8.580;2022-12-29T01:43:49;17.70;90.70
32787;DHT22;19139;49.372;8.580;2022-12-29T01:46:39;17.70;90.70
32787;DHT22;19139;49.372;8.580;2022-12-29T01:49:15;17.70;90.70
32787;DHT22;19139;49.372;8.580;2022-12-29T01:51:55;17.70;90.70
32787;DHT22;19139;49.372;8.580;2022-12-29T01:54:36;17.70;90.70
32787;DHT22;19139;49.372;8.580;2022-12-29T01:57:08;17.70;90.70
32787;DHT22;19139;49.372;8.580;2022-12-29T01:59:39;17.70;90.70
32787;DHT22;19139;49.372;8.580;2022-12-29T02:02:08;17.70;90.70
32787;DHT22;19139;49.372;8.580;2022-12-29T02:04:36;17.70;90.70
32787;DHT22;19139;49.372;8.580;2022-12-29T02:07:11;17.70;90.70
32787;DHT22;19139;49.372;8.580;2022-12-29T02:09:40;17.70;90.70
32787;DHT22;19139;49.372;8.580;2022-12-29T02:12:07;17.70;91.00
32787;DHT22;19139;49.372;8.580;2022-12-29T02:14:34;17.70;90.70
32787;DHT22;19139;49.372;8.580;2022-12-29T02:17:07;17.70;90.70
32787;DHT22;19139;49.372;8.580;2022-12-29T02:36:32;17.70;90.70
32787;DHT22;19139;49.372;8.580;2022-12-29T02:47:11;17.70;90.70
32787;DHT22;19139;49.372;8.580;2022-12-29T02:49:51;17.70;90.70
32787;DHT22;19139;49.372;8.580;2022-12-29T02:52:30;17.70;90.70
32787;DHT22;19139;49.372;8.580;2022-12-29T02:54:58;17.70;90.70
32787;DHT22;19139;49.372;8.580;2022-12-29T03:00:07;17.70;90.70
32787;DHT22;19139;49.372;8.580;2022-12-29T03:10:50;17.70;90.70
32787;DHT22;19139;49.372;8.580;2022-12-29T03:16:47;17.70;90.70
32787;DHT22;19139;49.372;8.580;2022-12-29T03:19:23;17.70;90.70
32787;DHT22;19139;49.372;8.580;2022-12-29T03:21:57;17.70;90.70
32787;DHT22;19139;49.372;8.580;2022-12-29T03:24:47;17.70;90.70
32787;DHT22;19139;49.372;8.580;2022-12-29T03:27:19;17.70;90.70
32787;DHT22;19139;49.372;8.580;2022-12-29T03:29:48;17.70;90.80
32787;DHT22;19139;49.372;8.580;2022-12-29T03:32:22;17.80;90.80
32787;DHT22;19139;49.372;8.580;2022-12-29T03:34:50;17.70;90.70
32787;DHT22;19139;49.372;8.580;2022-12-29T03:37:22;17.70;90.70
32787;DHT22;19139;49.372;8.580;2022-12-29T03:39:50;17.70;90.70
32787;DHT22;19139;49.372;8.580;2022-12-29T03:42:19;17.70;90.70
32787;DHT22;19139;49.372;8.580;2022-12-29T03:44:47;17.80;90.80
32787;DHT22;19139;49.372;8.580;2022-12-29T03:47:14;17.70;90.70
32787;DHT22;19139;49.372;8.580;2022-12-29T03:49:41;17.70;90.80
32787;DHT22;19139;49.372;8.580;2022-12-29T03:52:08;17.70;90.80
32787;DHT22;19139;49.372;8.580;2022-12-29T03:54:34;17.70;90.80
32787;DHT22;19139;49.372;8.580;2022-12-29T03:57:01;17.70;90.80
32787;DHT22;19139;49.372;8.580;2022-12-29T03:59:27;17.70;90.80
32787;DHT22;19139;49.372;8.580;2022-12-29T04:01:54;17.70;90.80
32787;DHT22;19139;49.372;8.580;2022-12-29T04:04:21;17.70;90.80
32787;DHT22;19139;49.372;8.580;2022-12-29T04:06:48;17.70;90.80
32787;DHT22;19139;49.372;8.580;2022-12-29T04:09:14;17.70;90.80
32787;DHT22;19139;49.372;8.580;2022-12-29T04:11:43;17.70;90.80
32787;DHT22;19139;49.372;8.580;2022-12-29T04:14:09;17.70;90.80
32787;DHT22;19139;49.372;8.580;2022-12-29T04:16:36;17.70;90.80
32787;DHT22;19139;49.372;8.580;2022-12-29T04:19:06;17.70;90.80
32787;DHT22;19139;49.372;8.580;2022-12-29T04:21:33;17.80;90.80
32787;DHT22;19139;49.372;8.580;2022-12-29T04:24:00;17.80;90.80
32787;DHT22;19139;49.372;8.580;2022-12-29T04:26:27;17.80;90.80
32787;DHT22;19139;49.372;8.580;2022-12-29T04:28:53;17.80;90.80
32787;DHT22;19139;49.372;8.580;2022-12-29T04:31:20;17.80;90.80
32787;DHT22;19139;49.372;8.580;2022-12-29T04:33:46;17.80;90.80
32787;DHT22;19139;49.372;8.580;2022-12-29T04:36:13;17.70;90.80
32787;DHT22;19139;49.372;8.580;2022-12-29T04:38:40;17.80;90.80
32787;DHT22;19139;49.372;8.580;2022-12-29T04:41:06;17.80;90.90
32787;DHT22;19139;49.372;8.580;2022-12-29T04:43:33;17.80;90.80
32787;DHT22;19139;49.372;8.580;2022-12-29T04:46:00;17.70;90.80
32787;DHT22;19139;49.372;8.580;2022-12-29T04:48:26;17.80;90.90
32787;DHT22;19139;49.372;8.580;2022-12-29T04:50:53;17.80;90.90
32787;DHT22;19139;49.372;8.580;2022-12-29T04:53:19;17.80;90.90
32787;DHT22;19139;49.372;8.580;2022-12-29T04:55:53;17.80;90.90
32787;DHT22;19139;49.372;8.580;2022-12-29T04:58:20;17.80;90.90
32787;DHT22;19139;49.372;8.580;2022-12-29T05:00:49;17.80;90.90
32787;DHT22;19139;49.372;8.580;2022-12-29T05:03:16;17.80;90.90
32787;DHT22;19139;49.372;8.580;2022-12-29T05:05:43;17.80;90.90
32787;DHT22;19139;49.372;8.580;2022-12-29T05:08:10;17.80;90.90
32787;DHT22;19139;49.372;8.580;2022-12-29T05:10:37;17.80;90.90
32787;DHT22;19139;49.372;8.580;2022-12-29T05:13:03;17.80;90.90
32787;DHT22;19139;49.372;8.580;2022-12-29T05:15:30;17.80;90.90
32787;DHT22;19139;49.372;8.580;2022-12-29T05:17:56;17.80;90.90
32787;DHT22;19139;49.372;8.580;2022-12-29T05:20:23;17.80;90.90
32787;DHT22;19139;49.372;8.580;2022-12-29T05:22:49;17.80;90.90
32787;DHT22;19139;49.372;8.580;2022-12-29T05:25:16;17.80;90.90
32787;DHT22;19139;49.372;8.580;2022-12-29T05:27:43;17.80;90.90
32787;DHT22;19139;49.372;8.580;2022-12-29T05:30:10;17.80;90.90
32787;DHT22;19139;49.372;8.580;2022-12-29T05:32:36;17.80;90.90
32787;DHT22;19139;49.372;8.580;2022-12-29T05:35:04;17.80;90.90
32787;DHT22;19139;49.372;8.580;2022-12-29T05:37:30;17.80;90.90
32787;DHT22;19139;49.372;8.580;2022-12-29T05:39:58;17.80;90.90
32787;DHT22;19139;49.372;8.580;2022-12-29T05:42:25;17.80;90.90
32787;DHT22;19139;49.372;8.580;2022-12-29T05:44:52;17.80;90.90
32787;DHT22;19139;49.372;8.580;2022-12-29T05:47:20;17.80;90.90
32787;DHT22;19139;49.372;8.580;2022-12-29T05:49:47;17.80;90.90
32787;DHT22;19139;49.372;8.580;2022-12-29T05:52:13;17.80;90.90
32787;DHT22;19139;49.372;8.580;2022-12-29T05:54:40;17.80;90.90
32787;DHT22;19139;49.372;8.580;2022-12-29T05:57:06;17.80;90.90
32787;DHT22;19139;49.372;8.580;2022-12-29T05:59:33;17.80;90.90
32787;DHT22;19139;49.372;8.580;2022-12-29T06:02:00;17.80;90.90
32787;DHT22;19139;49.372;8.580;2022-12-29T06:04:27;17.80;90.90
32787;DHT22;19139;49.372;8.580;2022-12-29T06:06:53;17.80;90.90
32787;DHT22;19139;49.372;8.580;2022-12-29T06:09:20;17.80;90.90
32787;DHT22;19139;49.372;8.580;2022-12-29T06:11:46;17.80;90.90
32787;DHT22;19139;49.372;8.580;2022-12-29T06:14:13;17.80;90.90
32787;DHT22;19139;49.372;8.580;2022-12-29T06:16:39;17.80;90.90
32787;DHT22;19139;49.372;8.580;2022-12-29T06:19:06;17.80;90.90
32787;DHT22;19139;49.372;8.580;2022-12-29T06:21:32;17.80;90.90
32787;DHT22;19139;49.372;8.580;2022-12-29T06:23:59;17.80;90.90
32787;DHT22;19139;49.372;8.580;2022-12-29T06:26:26;17.80;90.90
32787;DHT22;19139;49.372;8.580;2022-12-29T06:28:52;17.80;90.90
32787;DHT22;19139;49.372;8.580;2022-12-29T06:31:19;17.80;90.90
32787;DHT22;19139;49.372;8.580;2022-12-29T06:33:45;17.80;90.90
32787;DHT22;19139;49.372;8.580;2022-12-29T06:36:15;17.80;90.90
32787;DHT22;19139;49.372;8.580;2022-12-29T06:38:42;17.80;90.90
32787;DHT22;19139;49.372;8.580;2022-12-29T06:41:09;17.80;90.90
32787;DHT22;19139;49.372;8.580;2022-12-29T06:43:36;17.80;90.90
32787;DHT22;19139;49.372;8.580;2022-12-29T06:46:05;17.80;90.90
32787;DHT22;19139;49.372;8.580;2022-12-29T06:48:31;17.80;90.90
32787;DHT22;19139;49.372;8.580;2022-12-29T06:50:58;17.80;90.90
32787;DHT22;19139;49.372;8.580;2022-12-29T06:53:25;17.80;90.90
32787;DHT22;19139;49.372;8.580;2022-12-29T06:55:51;17.80;91.00
32787;DHT22;19139;49.372;8.580;2022-12-29T06:58:18;17.80;91.00
32787;DHT22;19139;49.372;8.580;2022-12-29T07:00:44;17.80;91.00
32787;DHT22;19139;49.372;8.580;2022-12-29T07:03:11;17.80;91.00
32787;DHT22;19139;49.372;8.580;2022-12-29T07:05:38;17.80;91.00
32787;DHT22;19139;49.372;8.580;2022-12-29T07:08:04;17.80;90.90
32787;DHT22;19139;49.372;8.580;2022-12-29T07:10:32;17.80;91.00
32787;DHT22;19139;49.372;8.580;2022-12-29T07:12:59;17.80;91.00
32787;DHT22;19139;49.372;8.580;2022-12-29T07:15:25;17.80;91.00
32787;DHT22;19139;49.372;8.580;2022-12-29T07:17:52;17.80;91.00
32787;DHT22;19139;49.372;8.580;2022-12-29T07:20:18;17.80;91.00
32787;DHT22;19139;49.372;8.580;2022-12-29T07:22:52;17.80;91.00
32787;DHT22;19139;49.372;8.580;2022-12-29T07:25:19;17.80;91.00
32787;DHT22;19139;49.372;8.580;2022-12-29T07:27:45;17.80;91.00
32787;DHT22;19139;49.372;8.580;2022-12-29T07:30:12;17.80;91.00
32787;DHT22;19139;49.372;8.580;2022-12-29T07:32:39;17.80;91.00
32787;DHT22;19139;49.372;8.580;2022-12-29T07:35:05;17.80;91.00
32787;DHT22;19139;49.372;8.580;2022-12-29T07:37:33;17.80;91.00
32787;DHT22;19139;49.372;8.580;2022-12-29T07:40:01;17.80;91.00
32787;DHT22;19139;49.372;8.580;2022-12-29T07:42:30;17.80;91.00
32787;DHT22;19139;49.372;8.580;2022-12-29T07:44:57;17.80;91.00
32787;DHT22;19139;49.372;8.580;2022-12-29T07:47:23;17.80;91.00
32787;DHT22;19139;49.372;8.580;2022-12-29T07:49:50;17.80;91.00
32787;DHT22;19139;49.372;8.580;2022-12-29T07:52:17;17.80;91.00
32787;DHT22;19139;49.372;8.580;2022-12-29T07:54:43;17.80;91.00
32787;DHT22;19139;49.372;8.580;2022-12-29T07:57:10;17.80;91.00
32787;DHT22;19139;49.372;8.580;2022-12-29T07:59:37;17.80;91.00
32787;DHT22;19139;49.372;8.580;2022-12-29T08:02:03;17.80;91.00
32787;DHT22;19139;49.372;8.580;2022-12-29T08:04:30;17.80;91.00
32787;DHT22;19139;49.372;8.580;2022-12-29T08:06:56;17.80;91.00
32787;DHT22;19139;49.372;8.580;2022-12-29T08:09:23;17.80;91.00
32787;DHT22;19139;49.372;8.580;2022-12-29T08:11:50;17.80;91.00
32787;DHT22;19139;49.372;8.580;2022-12-29T08:14:17;17.80;91.00
32787;DHT22;19139;49.372;8.580;2022-12-29T08:16:44;17.80;91.00
32787;DHT22;19139;49.372;8.580;2022-12-29T08:19:12;17.80;91.00
32787;DHT22;19139;49.372;8.580;2022-12-29T08:21:39;17.80;91.00
32787;DHT22;19139;49.372;8.580;2022-12-29T08:24:06;17.80;91.00
32787;DHT22;19139;49.372;8.580;2022-12-29T08:26:34;17.90;91.00
32787;DHT22;19139;49.372;8.580;2022-12-29T08:29:01;17.80;91.00
32787;DHT22;19139;49.372;8.580;2022-12-29T08:31:27;17.80;91.00
32787;DHT22;19139;49.372;8.580;2022-12-29T08:33:54;17.90;91.00
32787;DHT22;19139;49.372;8.580;2022-12-29T08:36:21;17.80;91.00
32787;DHT22;19139;49.372;8.580;2022-12-29T08:38:47;17.90;91.00
32787;DHT22;19139;49.372;8.580;2022-12-29T08:41:14;17.90;91.00
32787;DHT22;19139;49.372;8.580;2022-12-29T08:43:41;17.80;91.00
32787;DHT22;19139;49.372;8.580;2022-12-29T08:46:07;17.90;91.00
32787;DHT22;19139;49.372;8.580;2022-12-29T08:48:34;17.80;91.00
32787;DHT22;19139;49.372;8.580;2022-12-29T08:51:00;17.80;91.00
32787;DHT22;19139;49.372;8.580;2022-12-29T08:53:27;17.90;91.00
32787;DHT22;19139;49.372;8.580;2022-12-29T08:55:59;17.90;91.00
32787;DHT22;19139;49.372;8.580;2022-12-29T08:58:31;17.90;91.30
32787;DHT22;19139;49.372;8.580;2022-12-29T09:00:58;17.90;91.00
32787;DHT22;19139;49.372;8.580;2022-12-29T09:03:26;17.90;91.00
32787;DHT22;19139;49.372;8.580;2022-12-29T09:06:13;17.90;91.00
32787;DHT22;19139;49.372;8.580;2022-12-29T09:08:40;17.90;91.00
32787;DHT22;19139;49.372;8.580;2022-12-29T09:11:21;17.90;91.00
32787;DHT22;19139;49.372;8.580;2022-12-29T09:13:48;17.90;91.00
32787;DHT22;19139;49.372;8.580;2022-12-29T09:16:15;17.90;91.00
32787;DHT22;19139;49.372;8.580;2022-12-29T09:18:43;17.90;91.00
32787;DHT22;19139;49.372;8.580;2022-12-29T09:21:11;17.90;91.00
32787;DHT22;19139;49.372;8.580;2022-12-29T09:23:38;17.90;91.00
32787;DHT22;19139;49.372;8.580;2022-12-29T09:26:05;17.90;91.00
32787;DHT22;19139;49.372;8.580;2022-12-29T09:28:32;17.90;91.00
32787;DHT22;19139;49.372;8.580;2022-12-29T09:30:59;17.90;91.00
32787;DHT22;19139;49.372;8.580;2022-12-29T09:33:26;17.90;91.00
32787;DHT22;19139;49.372;8.580;2022-12-29T09:35:56;17.90;91.00
32787;DHT22;19139;49.372;8.580;2022-12-29T09:38:24;17.90;91.00
32787;DHT22;19139;49.372;8.580;2022-12-29T09:40:54;17.90;91.00
32787;DHT22;19139;49.372;8.580;2022-12-29T09:46:39;17.90;91.00
32787;DHT22;19139;49.372;8.580;2022-12-29T09:49:28;17.90;91.00
32787;DHT22;19139;49.372;8.580;2022-12-29T09:52:11;17.90;91.00
32787;DHT22;19139;49.372;8.580;2022-12-29T09:54:49;17.90;91.00
32787;DHT22;19139;49.372;8.580;2022-12-29T10:00:05;17.90;91.10
32787;DHT22;19139;49.372;8.580;2022-12-29T10:02:43;17.90;91.00
32787;DHT22;19139;49.372;8.580;2022-12-29T10:10:59;17.90;91.10
32787;DHT22;19139;49.372;8.580;2022-12-29T10:25:02;18.00;91.10
32787;DHT22;19139;49.372;8.580;2022-12-29T10:27:37;17.90;91.00
32787;DHT22;19139;49.372;8.580;2022-12-29T10:30:04;17.90;91.00
32787;DHT22;19139;49.372;8.580;2022-12-29T10:32:43;17.90;91.00
32787;DHT22;19139;49.372;8.580;2022-12-29T10:35:16;17.90;91.00
32787;DHT22;19139;49.372;8.580;2022-12-29T10:40:38;17.90;91.00
32787;DHT22;19139;49.372;8.580;2022-12-29T10:43:29;17.90;91.00
32787;DHT22;19139;49.372;8.580;2022-12-29T10:45:59;17.90;91.00
32787;DHT22;19139;49.372;8.580;2022-12-29T10:48:33;17.90;91.00
32787;DHT22;19139;49.372;8.580;2022-12-29T10:51:02;17.90;91.10
32787;DHT22;19139;49.372;8.580;2022-12-29T10:53:45;17.90;91.10
32787;DHT22;19139;49.372;8.580;2022-12-29T10:56:25;17.90;91.10
32787;DHT22;19139;49.372;8.580;2022-12-29T10:58:55;17.90;91.00
32787;DHT22;19139;49.372;8.580;2022-12-29T11:01:27;17.90;91.10
32787;DHT22;19139;49.372;8.580;2022-12-29T11:04:03;17.90;91.10
32787;DHT22;19139;49.372;8.580;2022-12-29T11:06:32;17.90;91.10
32787;DHT22;19139;49.372;8.580;2022-12-29T11:09:16;17.90;91.00
32787;DHT22;19139;49.372;8.580;2022-12-29T11:11:47;17.90;91.00
32787;DHT22;19139;49.372;8.580;2022-12-29T11:14:18;18.00;91.00
32787;DHT22;19139;49.372;8.580;2022-12-29T11:17:00;18.00;91.30
32787;DHT22;19139;49.372;8.580;2022-12-29T11:19:29;18.00;91.50
32787;DHT22;19139;49.372;8.580;2022-12-29T11:22:32;18.00;91.70
32787;DHT22;19139;49.372;8.580;2022-12-29T11:25:11;18.00;91.80
32787;DHT22;19139;49.372;8.580;2022-12-29T11:27:38;18.00;91.90
32787;DHT22;19139;49.372;8.580;2022-12-29T11:30:23;18.00;92.10
32787;DHT22;19139;49.372;8.580;2022-12-29T11:32:52;18.00;92.20
32787;DHT22;19139;49.372;8.580;2022-12-29T11:35:42;18.10;92.30
32787;DHT22;19139;49.372;8.580;2022-12-29T11:38:39;18.10;92.30
32787;DHT22;19139;49.372;8.580;2022-12-29T11:41:11;18.10;92.30
32787;DHT22;19139;49.372;8.580;2022-12-29T11:43:40;18.10;92.40
32787;DHT22;19139;49.372;8.580;2022-12-29T11:46:17;18.10;92.40
32787;DHT22;19139;49.372;8.580;2022-12-29T11:48:46;18.10;92.50
32787;DHT22;19139;49.372;8.580;2022-12-29T11:51:22;18.10;92.60
32787;DHT22;19139;49.372;8.580;2022-12-29T11:53:55;18.10;92.60
32787;DHT22;19139;49.372;8.580;2022-12-29T11:56:39;18.10;92.60
32787;DHT22;19139;49.372;8.580;2022-12-29T12:01:58;18.10;92.70
32787;DHT22;19139;49.372;8.580;2022-12-29T12:04:34;18.10;92.70
32787;DHT22;19139;49.372;8.580;2022-12-29T12:07:15;18.10;92.70
32787;DHT22;19139;49.372;8.580;2022-12-29T12:09:51;18.10;92.70
32787;DHT22;19139;49.372;8.580;2022-12-29T12:12:53;18.10;92.70
32787;DHT22;19139;49.372;8.580;2022-12-29T12:15:31;18.10;92.80
32787;DHT22;19139;49.372;8.580;2022-12-29T12:21:05;18.20;92.90
32787;DHT22;19139;49.372;8.580;2022-12-29T12:26:30;18.20;92.90
32787;DHT22;19139;49.372;8.580;2022-12-29T12:29:10;18.20;92.90
32787;DHT22;19139;49.372;8.580;2022-12-29T12:32:01;18.20;92.80
32787;DHT22;19139;49.372;8.580;2022-12-29T12:34:39;18.20;92.70
32787;DHT22;19139;49.372;8.580;2022-12-29T12:57:01;18.20;92.30
32787;DHT22;19139;49.372;8.580;2022-12-29T13:00:02;18.20;92.20
32787;DHT22;19139;49.372;8.580;2022-12-29T13:03:06;18.20;92.20
32787;DHT22;19139;49.372;8.580;2022-12-29T13:05:47;18.20;92.20
32787;DHT22;19139;49.372;8.580;2022-12-29T13:08:25;18.20;92.20
32787;DHT22;19139;49.372;8.580;2022-12-29T13:13:49;18.20;92.20
32787;DHT22;19139;49.372;8.580;2022-12-29T13:16:23;18.20;92.20
32787;DHT22;19139;49.372;8.580;2022-12-29T13:21:57;18.20;92.10
32787;DHT22;19139;49.372;8.580;2022-12-29T13:27:14;18.20;92.00
32787;DHT22;19139;49.372;8.580;2022-12-29T13:29:45;18.20;92.00
32787;DHT22;19139;49.372;8.580;2022-12-29T13:33:19;18.20;92.00
32787;DHT22;19139;49.372;8.580;2022-12-29T13:35:32;18.20;92.00
32787;DHT22;19139;49.372;8.580;2022-12-29T13:38:07;18.20;92.10
32787;DHT22;19139;49.372;8.580;2022-12-29T13:40:40;18.20;92.10
32787;DHT22;19139;49.372;8.580;2022-12-29T13:43:08;18.20;92.10
32787;DHT22;19139;49.372;8.580;2022-12-29T13:45:36;18.20;92.10
32787;DHT22;19139;49.372;8.580;2022-12-29T13:48:07;18.20;92.00
32787;DHT22;19139;49.372;8.580;2022-12-29T13:50:38;18.20;92.00
32787;DHT22;19139;49.372;8.580;2022-12-29T13:55:58;18.20;92.00
32787;DHT22;19139;49.372;8.580;2022-12-29T13:58:50;18.20;92.40
32787;DHT22;19139;49.372;8.580;2022-12-29T14:01:30;18.20;92.00
32787;DHT22;19139;49.372;8.580;2022-12-29T14:04:03;18.20;92.00
32787;DHT22;19139;49.372;8.580;2022-12-29T14:06:36;18.20;92.00
32787;DHT22;19139;49.372;8.580;2022-12-29T14:15:23;18.20;92.00
32787;DHT22;19139;49.372;8.580;2022-12-29T14:20:49;18.10;92.00
32787;DHT22;19139;49.372;8.580;2022-12-29T14:23:45;18.10;92.00
32787;DHT22;19139;49.372;8.580;2022-12-29T14:31:47;18.10;92.00
32787;DHT22;19139;49.372;8.580;2022-12-29T14:34:15;18.10;92.00
32787;DHT22;19139;49.372;8.580;2022-12-29T14:39:39;18.10;91.90
32787;DHT22;19139;49.372;8.580;2022-12-29T14:44:57;18.10;91.90
32787;DHT22;19139;49.372;8.580;2022-12-29T14:47:36;18.10;91.90
32787;DHT22;19139;49.372;8.580;2022-12-29T14:50:16;18.20;92.10
32787;DHT22;19139;49.372;8.580;2022-12-29T14:52:54;18.20;92.20
32787;DHT22;19139;49.372;8.580;2022-12-29T14:55:54;18.20;92.30
32787;DHT22;19139;49.372;8.580;2022-12-29T14:58:48;18.20;92.40
32787;DHT22;19139;49.372;8.580;2022-12-29T15:01:38;18.20;92.50
32787;DHT22;19139;49.372;8.580;2022-12-29T15:04:41;18.20;92.50
32787;DHT22;19139;49.372;8.580;2022-12-29T15:07:10;18.20;92.70
32787;DHT22;19139;49.372;8.580;2022-12-29T15:09:46;18.20;92.70
32787;DHT22;19139;49.372;8.580;2022-12-29T15:15:18;18.20;92.80
32787;DHT22;19139;49.372;8.580;2022-12-29T15:17:45;18.20;92.80
32787;DHT22;19139;49.372;8.580;2022-12-29T15:23:00;18.20;92.90
32787;DHT22;19139;49.372;8.580;2022-12-29T15:25:28;18.20;93.00
32787;DHT22;19139;49.372;8.580;2022-12-29T15:28:01;18.20;93.00
32787;DHT22;19139;49.372;8.580;2022-12-29T15:30:28;18.20;93.00
32787;DHT22;19139;49.372;8.580;2022-12-29T15:32:56;18.30;93.10
32787;DHT22;19139;49.372;8.580;2022-12-29T15:35:24;18.30;93.20
32787;DHT22;19139;49.372;8.580;2022-12-29T15:37:51;18.30;93.30
32787;DHT22;19139;49.372;8.580;2022-12-29T15:40:29;18.30;93.30
32787;DHT22;19139;49.372;8.580;2022-12-29T15:45:35;18.30;93.40
32787;DHT22;19139;49.372;8.580;2022-12-29T15:48:03;18.30;93.40
32787;DHT22;19139;49.372;8.580;2022-12-29T15:50:32;18.30;93.50
32787;DHT22;19139;49.372;8.580;2022-12-29T15:53:00;18.30;93.50
32787;DHT22;19139;49.372;8.580;2022-12-29T15:55:34;18.30;93.60
32787;DHT22;19139;49.372;8.580;2022-12-29T15:58:03;18.30;93.60
32787;DHT22;19139;49.372;8.580;2022-12-29T16:00:33;18.30;93.60
32787;DHT22;19139;49.372;8.580;2022-12-29T16:03:02;18.30;93.60
32787;DHT22;19139;49.372;8.580;2022-12-29T16:05:34;18.30;93.60
32787;DHT22;19139;49.372;8.580;2022-12-29T16:08:03;18.30;93.80
32787;DHT22;19139;49.372;8.580;2022-12-29T16:10:35;18.30;93.90
32787;DHT22;19139;49.372;8.580;2022-12-29T16:13:29;18.30;93.90
32787;DHT22;19139;49.372;8.580;2022-12-29T16:16:13;18.30;94.00
32787;DHT22;19139;49.372;8.580;2022-12-29T16:18:41;18.30;94.10
32787;DHT22;19139;49.372;8.580;2022-12-29T16:21:23;18.30;94.20
32787;DHT22;19139;49.372;8.580;2022-12-29T16:23:53;18.30;94.20
32787;DHT22;19139;49.372;8.580;2022-12-29T16:26:22;18.30;94.30
32787;DHT22;19139;49.372;8.580;2022-12-29T16:28:56;18.30;94.30
32787;DHT22;19139;49.372;8.580;2022-12-29T16:31:32;18.40;94.30
32787;DHT22;19139;49.372;8.580;2022-12-29T16:34:21;18.30;94.30
32787;DHT22;19139;49.372;8.580;2022-12-29T16:37:00;18.30;94.40
32787;DHT22;19139;49.372;8.580;2022-12-29T16:39:35;18.30;94.40
32787;DHT22;19139;49.372;8.580;2022-12-29T16:47:49;18.30;94.40
32787;DHT22;19139;49.372;8.580;2022-12-29T16:50:37;18.30;94.40
32787;DHT22;19139;49.372;8.580;2022-12-29T16:53:05;18.30;94.50
32787;DHT22;19139;49.372;8.580;2022-12-29T16:55:32;18.30;94.50
32787;DHT22;19139;49.372;8.580;2022-12-29T16:58:00;18.30;94.50
32787;DHT22;19139;49.372;8.580;2022-12-29T17:00:29;18.30;94.50
32787;DHT22;19139;49.372;8.580;2022-12-29T17:02:59;18.30;94.50
32787;DHT22;19139;49.372;8.580;2022-12-29T17:05:27;18.30;94.60
32787;DHT22;19139;49.372;8.580;2022-12-29T17:07:53;18.30;94.60
32787;DHT22;19139;49.372;8.580;2022-12-29T17:10:21;18.30;94.50
32787;DHT22;19139;49.372;8.580;2022-12-29T17:13:08;18.30;94.60
32787;DHT22;19139;49.372;8.580;2022-12-29T17:15:35;18.30;94.60
32787;DHT22;19139;49.372;8.580;2022-12-29T17:18:01;18.30;94.60
32787;DHT22;19139;49.372;8.580;2022-12-29T17:20:31;18.30;94.70
32787;DHT22;19139;49.372;8.580;2022-12-29T17:22:58;18.30;94.60
32787;DHT22;19139;49.372;8.580;2022-12-29T17:25:26;18.30;94.70
32787;DHT22;19139;49.372;8.580;2022-12-29T17:28:04;18.30;94.70
32787;DHT22;19139;49.372;8.580;2022-12-29T17:30:33;18.30;94.70
32787;DHT22;19139;49.372;8.580;2022-12-29T17:33:04;18.30;94.70
32787;DHT22;19139;49.372;8.580;2022-12-29T17:35:31;18.30;94.70
32787;DHT22;19139;49.372;8.580;2022-12-29T17:37:58;18.30;94.70
32787;DHT22;19139;49.372;8.580;2022-12-29T17:40:31;18.30;94.70
32787;DHT22;19139;49.372;8.580;2022-12-29T17:42:59;18.30;94.70
32787;DHT22;19139;49.372;8.580;2022-12-29T17:45:28;18.30;94.70
32787;DHT22;19139;49.372;8.580;2022-12-29T17:47:56;18.30;94.80
32787;DHT22;19139;49.372;8.580;2022-12-29T17:50:27;18.30;94.70
32787;DHT22;19139;49.372;8.580;2022-12-29T17:53:02;18.30;94.80
32787;DHT22;19139;49.372;8.580;2022-12-29T17:55:29;18.30;94.90
32787;DHT22;19139;49.372;8.580;2022-12-29T17:58:17;18.30;94.90
32787;DHT22;19139;49.372;8.580;2022-12-29T18:00:46;18.30;94.90
32787;DHT22;19139;49.372;8.580;2022-12-29T18:03:15;18.30;94.90
32787;DHT22;19139;49.372;8.580;2022-12-29T18:05:43;18.30;94.90
32787;DHT22;19139;49.372;8.580;2022-12-29T18:08:10;18.40;95.00
32787;DHT22;19139;49.372;8.580;2022-12-29T18:10:38;18.40;95.00
32787;DHT22;19139;49.372;8.580;2022-12-29T18:13:05;18.30;95.40
32787;DHT22;19139;49.372;8.580;2022-12-29T18:15:34;18.30;95.10
32787;DHT22;19139;49.372;8.580;2022-12-29T18:18:15;18.30;95.40
32787;DHT22;19139;49.372;8.580;2022-12-29T18:20:44;18.30;95.80
32787;DHT22;19139;49.372;8.580;2022-12-29T18:23:25;18.40;96.30